Time;durP1;ratioP1;P1;durP2;ratioP2;P2;SDS_P1;SDS_P2;PMS_P1;PMS_P2;Temp;Humidity;BMP_temperature;BMP_pressure;BME280_temperature;BME280_humidity;BME280_pressure;Samples;Min_cycle;Max_cycle;Signal;HPM_P1;HPM_P2
2020/12/23 00:00:22;;;;;;;;;;;;;;;18.37;69.18;101791.47;5007985;28;755;-69
2020/12/23 00:03:04;;;;;;;;;;;;;;;18.32;69.25;101788.16;5007969;28;1245;-66
2020/12/23 00:05:31;;;;;;;;;;;;;;;18.33;69.46;101781.97;5007744;28;1165;-68
2020/12/23 00:07:57;;;;;;;;;;;;;;;18.30;69.36;101777.66;5008328;28;1336;-68
2020/12/23 00:10:23;;;;;;;;;;;;;;;18.31;69.44;101773.22;5008004;28;1136;-68
2020/12/23 00:12:49;;;;;;;;;;;;;;;18.29;69.62;101765.41;5008064;28;1918;-69
2020/12/23 00:15:16;;;;;;;;;;;;;;;18.30;69.19;101771.53;5008272;28;806;-68
2020/12/23 00:17:42;;;;;;;;;;;;;;;18.30;69.28;101766.25;5008293;28;1661;-68
2020/12/23 00:20:09;;;;;;;;;;;;;;;18.29;69.37;101762.75;5008206;28;1048;-68
2020/12/23 00:22:36;;;;;;;;;;;;;;;18.33;69.14;101772.25;5008140;28;1252;-68
2020/12/23 00:25:04;;;;;;;;;;;;;;;18.32;69.26;101762.63;5007779;28;736;-68
2020/12/23 00:27:31;;;;;;;;;;;;;;;18.30;69.29;101768.91;5006938;28;1241;-68
2020/12/23 00:29:57;;;;;;;;;;;;;;;18.28;69.25;101768.06;5007228;28;779;-69
2020/12/23 00:32:27;;;;;;;;;;;;;;;18.26;69.37;101759.38;5007881;28;1990;-68
2020/12/23 00:34:53;;;;;;;;;;;;;;;18.29;69.31;101759.25;5007497;28;827;-68
2020/12/23 00:37:20;;;;;;;;;;;;;;;18.27;69.36;101750.56;4990174;28;1193;-68
2020/12/23 00:39:46;;;;;;;;;;;;;;;18.28;69.07;101749.63;5008195;28;767;-69
2020/12/23 00:42:19;;;;;;;;;;;;;;;18.29;69.02;101748.72;5009362;28;1332;-68
2020/12/23 00:44:45;;;;;;;;;;;;;;;18.27;69.08;101750.56;5008846;28;823;-68
2020/12/23 00:47:12;;;;;;;;;;;;;;;18.28;69.11;101747.84;4991324;28;1312;-68
2020/12/23 00:49:38;;;;;;;;;;;;;;;18.26;69.21;101744.41;4991150;28;1154;-69
2020/12/23 00:52:04;;;;;;;;;;;;;;;18.25;69.20;101745.31;4990729;28;1910;-68
2020/12/23 00:54:31;;;;;;;;;;;;;;;18.26;68.92;101746.19;5008782;28;1070;-68
2020/12/23 00:56:57;;;;;;;;;;;;;;;18.27;69.15;101745.28;5008645;28;1257;-68
2020/12/23 00:59:23;;;;;;;;;;;;;;;18.24;69.12;101740.13;4991006;28;913;-67
2020/12/23 01:01:49;;;;;;;;;;;;;;;18.25;68.98;101747.09;5008909;28;1284;-68
2020/12/23 01:04:15;;;;;;;;;;;;;;;18.22;68.83;101740.16;5008633;28;1080;-68
2020/12/23 01:06:42;;;;;;;;;;;;;;;18.20;69.02;101735.88;5010394;28;1260;-68
2020/12/23 01:09:08;;;;;;;;;;;;;;;18.20;68.88;101744.66;5012333;28;937;-67
2020/12/23 01:11:34;;;;;;;;;;;;;;;18.21;68.93;101740.25;5012733;28;1981;-67
2020/12/23 01:14:00;;;;;;;;;;;;;;;18.23;68.98;101741.03;5012062;28;984;-68
2020/12/23 01:16:27;;;;;;;;;;;;;;;18.22;69.00;101745.44;5012529;28;1371;-68
2020/12/23 01:18:53;;;;;;;;;;;;;;;18.21;69.20;101741.06;5012189;28;1105;-68
2020/12/23 01:21:19;;;;;;;;;;;;;;;18.20;68.87;101746.44;5012406;28;1296;-68
2020/12/23 01:23:46;;;;;;;;;;;;;;;18.21;68.74;101745.53;4994455;28;794;-69
2020/12/23 01:26:12;;;;;;;;;;;;;;;18.22;68.73;101747.22;4994272;28;1451;-68
2020/12/23 01:28:38;;;;;;;;;;;;;;;18.18;68.70;101741.19;5012082;28;842;-69
2020/12/23 01:31:05;;;;;;;;;;;;;;;18.17;68.68;101744.78;5011688;28;1260;-69
2020/12/23 01:33:32;;;;;;;;;;;;;;;18.20;69.06;101738.53;5011933;28;1975;-68
2020/12/23 01:35:58;;;;;;;;;;;;;;;18.20;68.70;101743.78;5012299;28;806;-68
2020/12/23 01:38:24;;;;;;;;;;;;;;;18.19;68.83;101747.34;4994272;28;1264;-69
2020/12/23 01:41:02;;;;;;;;;;;;;;;18.18;68.81;101750.91;5011873;28;842;-68
2020/12/23 01:43:30;;;;;;;;;;;;;;;18.18;68.74;101740.38;5012048;28;974;-68
2020/12/23 01:45:57;;;;;;;;;;;;;;;18.17;68.68;101749.19;5011854;28;1116;-69
2020/12/23 01:48:25;;;;;;;;;;;;;;;18.15;68.94;101746.59;5011882;28;1280;-69
2020/12/23 01:50:51;;;;;;;;;;;;;;;18.17;68.69;101744.78;5011730;28;1136;-68
2020/12/23 01:53:18;;;;;;;;;;;;;;;18.17;68.84;101743.91;5011495;28;1982;-68
2020/12/23 01:55:47;;;;;;;;;;;;;;;18.15;68.63;101743.13;4993704;28;1279;-69
2020/12/23 01:58:15;;;;;;;;;;;;;;;18.15;68.68;101735.22;5011605;28;1236;-68
2020/12/23 02:00:42;;;;;;;;;;;;;;;18.17;68.60;101746.56;5011593;28;820;-68
2020/12/23 02:03:09;;;;;;;;;;;;;;;18.15;68.61;101735.22;5011612;28;1237;-68
2020/12/23 02:05:36;;;;;;;;;;;;;;;18.17;68.52;101733.38;5011818;28;1223;-69
2020/12/23 02:08:05;;;;;;;;;;;;;;;18.14;68.78;101730.84;5011627;28;1311;-69
2020/12/23 02:10:41;;;;;;;;;;;;;;;18.16;68.79;101726.34;5011486;28;974;-67
2020/12/23 02:13:48;;;;;;;;;;;;;;;18.16;68.46;101727.22;5011284;28;1907;-68
2020/12/23 02:16:21;;;;;;;;;;;;;;;18.13;68.48;101727.34;5011301;28;1181;-68
2020/12/23 02:19:00;;;;;;;;;;;;;;;18.13;68.54;101723.84;4988686;28;1697;-69
2020/12/23 02:21:29;;;;;;;;;;;;;;;18.14;68.68;101721.16;4990247;28;1292;-68
2020/12/23 02:24:16;;;;;;;;;;;;;;;18.13;68.67;101726.47;4991847;28;1141;-66
2020/12/23 02:26:42;;;;;;;;;;;;;;;18.12;68.43;101722.16;4991693;28;1265;-69
2020/12/23 02:29:11;;;;;;;;;;;;;;;18.13;68.45;101718.56;4989408;28;2064;-66
2020/12/23 02:31:38;;;;;;;;;;;;;;;18.11;68.70;101720.41;4991952;28;1902;-65
2020/12/23 02:34:05;;;;;;;;;;;;;;;18.09;68.46;101715.19;4973957;28;977;-67
2020/12/23 02:36:31;;;;;;;;;;;;;;;18.11;68.58;101710.72;4991397;28;1245;-68
2020/12/23 02:38:57;;;;;;;;;;;;;;;18.11;68.34;101717.78;4990467;28;1151;-68
2020/12/23 02:41:24;;;;;;;;;;;;;;;18.06;68.66;101709.16;4991425;28;1229;-67
2020/12/23 02:43:50;;;;;;;;;;;;;;;18.09;68.60;101712.56;4991846;28;1073;-68
2020/12/23 02:46:18;;;;;;;;;;;;;;;18.10;68.58;101710.78;4973882;28;1293;-68
2020/12/23 02:48:44;;;;;;;;;;;;;;;18.10;68.57;101710.78;4989955;28;1395;-68
2020/12/23 02:51:11;;;;;;;;;;;;;;;18.08;68.91;101708.22;4991380;28;1249;-68
2020/12/23 02:53:37;;;;;;;;;;;;;;;18.09;68.42;101703.81;4989970;28;1985;-68
2020/12/23 02:56:05;;;;;;;;;;;;;;;18.06;68.54;101699.50;4989669;28;1221;-67
2020/12/23 02:58:32;;;;;;;;;;;;;;;18.09;68.47;101704.63;4989903;28;1145;-67
2020/12/23 03:00:58;;;;;;;;;;;;;;;18.06;68.44;101699.50;4989494;28;1314;-68
2020/12/23 03:03:24;;;;;;;;;;;;;;;18.07;68.83;101693.31;4991020;28;1339;-68
2020/12/23 03:05:51;;;;;;;;;;;;;;;18.06;68.59;101693.34;4990931;28;842;-69
2020/12/23 03:08:17;;;;;;;;;;;;;;;18.07;68.53;101692.44;4990914;28;1339;-68
2020/12/23 03:10:43;;;;;;;;;;;;;;;18.06;68.46;101688.06;4990908;28;774;-69
2020/12/23 03:13:10;;;;;;;;;;;;;;;18.06;68.47;101690.72;4990573;28;1989;-68
2020/12/23 03:15:37;;;;;;;;;;;;;;;18.03;68.51;101686.41;4989369;28;1010;-69
2020/12/23 03:18:03;;;;;;;;;;;;;;;18.04;68.33;101682.88;4993029;28;1594;-68
2020/12/23 03:20:29;;;;;;;;;;;;;;;18.03;68.57;101673.25;4992414;28;1408;-66
2020/12/23 03:22:55;;;;;;;;;;;;;;;18.05;68.92;101681.09;5010308;28;1241;-68
2020/12/23 03:25:22;;;;;;;;;;;;;;;18.06;68.35;101666.97;5010282;28;1088;-68
2020/12/23 03:27:48;;;;;;;;;;;;;;;18.03;68.47;101676.75;5010010;28;1217;-69
2020/12/23 03:30:14;;;;;;;;;;;;;;;18.03;68.70;101674.09;5009720;28;861;-68
2020/12/23 03:32:40;;;;;;;;;;;;;;;18.03;68.47;101671.47;4992409;28;1914;-67
2020/12/23 03:35:18;;;;;;;;;;;;;;;18.06;68.54;101667.84;4994093;28;866;-67
2020/12/23 03:37:44;;;;;;;;;;;;;;;18.06;68.96;101672.25;5009976;28;1229;-67
2020/12/23 03:40:10;;;;;;;;;;;;;;;18.04;68.37;101677.59;4992240;28;1205;-67
2020/12/23 03:42:37;;;;;;;;;;;;;;;18.03;68.56;101670.59;5009787;28;1224;-67
2020/12/23 03:45:03;;;;;;;;;;;;;;;18.00;68.42;101663.69;5009802;28;980;-67
2020/12/23 03:47:29;;;;;;;;;;;;;;;18.00;68.43;101663.69;5009537;28;1236;-67
2020/12/23 03:49:56;;;;;;;;;;;;;;;18.00;68.55;101655.78;5009928;28;825;-67
2020/12/23 03:52:23;;;;;;;;;;;;;;;18.01;68.47;101668.03;4992002;28;1910;-67
2020/12/23 03:54:49;;;;;;;;;;;;;;;18.01;68.53;101662.78;5010117;28;1235;-67
2020/12/23 03:57:20;;;;;;;;;;;;;;;17.99;68.44;101656.69;4991968;28;1387;-67
2020/12/23 03:59:46;;;;;;;;;;;;;;;17.99;68.27;101656.69;5010064;28;1297;-68
2020/12/23 04:02:13;;;;;;;;;;;;;;;18.00;68.38;101655.78;5009642;28;1327;-68
2020/12/23 04:04:40;;;;;;;;;;;;;;;18.02;68.33;101645.19;5009513;28;889;-68
2020/12/23 04:07:06;;;;;;;;;;;;;;;18.01;68.49;101648.72;5009301;28;1217;-68
2020/12/23 04:09:32;;;;;;;;;;;;;;;17.96;68.44;101648.91;5009863;28;1263;-68
2020/12/23 04:11:58;;;;;;;;;;;;;;;17.96;68.33;101646.25;5008987;28;1918;-67
2020/12/23 04:14:24;;;;;;;;;;;;;;;17.96;68.42;101645.44;4991893;28;965;-67
2020/12/23 04:16:56;;;;;;;;;;;;;;;17.99;68.80;101643.50;5009194;28;1331;-67
2020/12/23 04:19:24;;;;;;;;;;;;;;;17.97;68.46;101637.44;5009218;28;1612;-67
2020/12/23 04:21:50;;;;;;;;;;;;;;;18.00;68.36;101639.09;5009130;28;1174;-68
2020/12/23 04:24:16;;;;;;;;;;;;;;;17.99;68.48;101643.50;5009486;28;1108;-68
2020/12/23 04:26:51;;;;;;;;;;;;;;;17.96;68.24;101643.63;4990677;28;1303;-68
2020/12/23 04:29:21;;;;;;;;;;;;;;;17.97;68.32;101639.22;5009320;28;1118;-68
2020/12/23 04:31:59;;;;;;;;;;;;;;;17.97;68.49;101640.06;5008298;28;1903;-68
2020/12/23 04:34:31;;;;;;;;;;;;;;;17.96;68.54;101640.97;5008962;28;1094;-68
2020/12/23 04:37:00;;;;;;;;;;;;;;;17.95;68.32;101636.66;5007675;28;1560;-68
2020/12/23 04:39:29;;;;;;;;;;;;;;;17.96;68.50;101634.88;5009579;28;955;-67
2020/12/23 04:42:05;;;;;;;;;;;;;;;17.94;68.25;101634.94;5011995;28;1296;-67
2020/12/23 04:44:31;;;;;;;;;;;;;;;17.94;68.37;101632.28;5013478;28;975;-67
2020/12/23 04:47:04;;;;;;;;;;;;;;;17.93;68.45;101641.09;4994378;28;1662;-67
2020/12/23 04:49:36;;;;;;;;;;;;;;;17.94;68.50;101648.09;4995924;28;1147;-67
2020/12/23 04:52:05;;;;;;;;;;;;;;;17.92;68.46;101644.69;5012083;28;1894;-67
2020/12/23 04:54:37;;;;;;;;;;;;;;;17.95;68.36;101634.03;5013104;28;895;-67
2020/12/23 04:57:05;;;;;;;;;;;;;;;17.93;68.35;101635.84;5012767;28;1237;-67
2020/12/23 04:59:32;;;;;;;;;;;;;;;17.93;68.36;101638.47;4995335;28;1476;-67
2020/12/23 05:01:59;;;;;;;;;;;;;;;17.91;68.25;101637.69;5013085;28;1229;-67
2020/12/23 05:04:26;;;;;;;;;;;;;;;17.92;68.47;101631.50;5012602;28;755;-68
2020/12/23 05:07:03;;;;;;;;;;;;;;;17.92;68.39;101626.22;5012998;28;1335;-68
2020/12/23 05:09:29;;;;;;;;;;;;;;;17.92;68.39;101638.56;5012474;28;956;-68
2020/12/23 05:11:56;;;;;;;;;;;;;;;17.93;68.20;101637.63;5012523;28;1922;-68
2020/12/23 05:14:23;;;;;;;;;;;;;;;17.94;68.46;101637.56;5012531;28;1092;-68
2020/12/23 05:16:51;;;;;;;;;;;;;;;17.90;68.12;101629.84;5012253;28;1367;-68
2020/12/23 05:19:18;;;;;;;;;;;;;;;17.92;68.64;101628.88;5012520;28;1563;-68
2020/12/23 05:21:45;;;;;;;;;;;;;;;17.91;68.01;101632.41;4994873;28;1379;-68
2020/12/23 05:24:12;;;;;;;;;;;;;;;17.91;68.51;101627.13;5012320;28;1107;-69
2020/12/23 05:26:47;;;;;;;;;;;;;;;17.89;68.48;101626.34;5012576;28;1281;-68
2020/12/23 05:29:14;;;;;;;;;;;;;;;17.90;68.32;101625.41;4994779;28;783;-68
2020/12/23 05:31:41;;;;;;;;;;;;;;;17.88;68.48;101624.63;5012499;28;1350;-68
2020/12/23 05:34:08;;;;;;;;;;;;;;;17.89;68.44;101638.66;5011942;28;1902;-68
2020/12/23 05:36:37;;;;;;;;;;;;;;;17.89;68.51;101633.41;5012508;28;1362;-67
2020/12/23 05:39:05;;;;;;;;;;;;;;;17.88;68.52;101627.25;4994170;28;1451;-68
2020/12/23 05:41:31;;;;;;;;;;;;;;;17.88;68.46;101631.66;5012390;28;1245;-70
2020/12/23 05:43:58;;;;;;;;;;;;;;;17.88;68.36;101632.53;4994175;28;1459;-68
2020/12/23 05:46:25;;;;;;;;;;;;;;;17.88;68.24;101632.53;4994318;28;1237;-67
2020/12/23 05:48:51;;;;;;;;;;;;;;;17.86;68.47;101634.38;5011771;28;846;-67
2020/12/23 05:51:18;;;;;;;;;;;;;;;17.88;68.26;101637.81;4994315;28;1300;-67
2020/12/23 05:53:45;;;;;;;;;;;;;;;17.88;68.29;101637.81;5011337;28;1906;-67
2020/12/23 05:56:13;;;;;;;;;;;;;;;17.87;68.42;101636.06;5011951;28;1264;-67
2020/12/23 05:58:44;;;;;;;;;;;;;;;17.87;68.18;101643.16;5011750;28;806;-69
2020/12/23 06:01:13;;;;;;;;;;;;;;;17.87;68.30;101633.44;5011718;28;1370;-66
2020/12/23 06:03:48;;;;;;;;;;;;;;;17.87;68.35;101632.59;5011663;28;818;-66
2020/12/23 06:06:20;;;;;;;;;;;;;;;17.87;68.34;101633.44;5011804;28;1350;-68
2020/12/23 06:08:49;;;;;;;;;;;;;;;17.88;68.20;101629.91;4993749;28;1339;-68
2020/12/23 06:11:54;;;;;;;;;;;;;;;17.87;68.30;101636.06;5011439;28;1276;-67
2020/12/23 06:15:01;;;;;;;;;;;;;;;17.87;68.28;101635.25;4988806;28;1597;-68
2020/12/23 06:17:30;;;;;;;;;;;;;;;17.86;68.34;101636.16;4992317;28;1803;-68
2020/12/23 06:19:57;;;;;;;;;;;;;;;17.86;68.41;101644.94;5011415;28;1458;-68
2020/12/23 06:22:25;;;;;;;;;;;;;;;17.86;68.36;101644.06;5010915;28;1312;-70
2020/12/23 06:24:52;;;;;;;;;;;;;;;17.91;68.53;101644.72;5010842;28;1054;-68
2020/12/23 06:27:19;;;;;;;;;;;;;;;17.89;68.48;101638.66;5011099;28;1241;-69
2020/12/23 06:29:46;;;;;;;;;;;;;;;17.86;68.65;101650.19;4993449;28;1011;-68
2020/12/23 06:32:20;;;;;;;;;;;;;;;17.83;68.61;101647.69;4992928;28;1910;-68
2020/12/23 06:34:53;;;;;;;;;;;;;;;17.88;68.63;101660.66;4991551;28;932;-68
2020/12/23 06:37:57;;;;;;;;;;;;;;;17.86;68.47;101660.75;4988763;28;1513;-66
2020/12/23 06:40:59;;;;;;;;;;;;;;;17.87;68.62;101659.81;4976338;28;1173;-68
2020/12/23 06:43:47;;;;;;;;;;;;;;;17.84;68.48;101662.56;4990371;28;1363;-68
2020/12/23 06:46:26;;;;;;;;;;;;;;;17.84;68.51;101659.09;4972983;28;1887;-66
2020/12/23 06:49:12;;;;;;;;;;;;;;;17.86;68.54;101666.00;4973187;28;1372;-66
2020/12/23 06:51:44;;;;;;;;;;;;;;;17.83;68.68;101654.72;4991363;28;1265;-65
2020/12/23 06:54:31;;;;;;;;;;;;;;;17.84;68.62;101662.56;4973019;28;1910;-66
2020/12/23 06:56:59;;;;;;;;;;;;;;;17.83;68.49;101660.84;4990738;28;1311;-67
2020/12/23 06:59:48;;;;;;;;;;;;;;;17.83;68.52;101658.22;4990668;28;822;-68
2020/12/23 07:02:23;;;;;;;;;;;;;;;17.83;68.49;101660.84;4988934;28;1411;-66
2020/12/23 07:05:01;;;;;;;;;;;;;;;17.84;68.51;101664.34;4988405;28;1129;-68
2020/12/23 07:07:42;;;;;;;;;;;;;;;17.81;68.69;101656.56;4974626;28;1367;-69
2020/12/23 07:10:17;;;;;;;;;;;;;;;17.84;69.94;101661.72;4972550;28;1194;-67
2020/12/23 07:12:46;;;;;;;;;;;;;;;17.97;69.64;101653.25;4990393;28;1899;-68
2020/12/23 07:15:24;;;;;;;;;;;;;;;17.95;68.47;101668.28;4990193;28;834;-69
2020/12/23 07:18:03;;;;;;;;;;;;;;;17.96;68.71;101661.25;4972876;28;1885;-68
2020/12/23 07:20:43;;;;;;;;;;;;;;;17.94;69.39;101663.06;4988802;28;1588;-68
2020/12/23 07:23:23;;;;;;;;;;;;;;;17.83;69.13;101660.00;4990577;28;1202;-69
2020/12/23 07:25:51;;;;;;;;;;;;;;;17.74;69.16;101661.22;4990195;28;812;-69
2020/12/23 07:28:18;;;;;;;;;;;;;;;17.71;69.47;101663.97;4956454;28;1526;-70
2020/12/23 07:30:45;;;;;;;;;;;;;;;17.70;69.37;101656.97;4989970;28;791;-69
2020/12/23 07:33:19;;;;;;;;;;;;;;;17.68;69.53;101650.91;4990332;28;1898;-68
2020/12/23 07:35:49;;;;;;;;;;;;;;;17.67;69.51;101649.19;4989717;28;881;-67
2020/12/23 07:38:16;;;;;;;;;;;;;;;17.66;69.73;101647.44;4989987;28;1244;-73
2020/12/23 07:40:43;;;;;;;;;;;;;;;17.66;69.35;101652.72;4989790;28;862;-69
2020/12/23 07:43:12;;;;;;;;;;;;;;;17.66;69.60;101647.44;4990094;28;1193;-68
2020/12/23 07:45:38;;;;;;;;;;;;;;;17.65;69.72;101642.25;4989795;28;787;-68
2020/12/23 07:48:09;;;;;;;;;;;;;;;17.63;69.64;101647.56;4972437;28;1319;-68
2020/12/23 07:50:38;;;;;;;;;;;;;;;17.62;69.52;101645.88;4989668;28;766;-69
2020/12/23 07:53:17;;;;;;;;;;;;;;;17.62;69.63;101651.16;4989565;28;1985;-70
2020/12/23 07:55:47;;;;;;;;;;;;;;;17.64;69.70;101649.28;4989402;28;905;-69
2020/12/23 07:58:14;;;;;;;;;;;;;;;17.63;69.54;101655.47;4989712;28;1296;-66
2020/12/23 08:00:49;;;;;;;;;;;;;;;17.64;69.79;101658.97;4972056;28;921;-67
2020/12/23 08:03:23;;;;;;;;;;;;;;;17.62;69.88;101656.41;4971951;28;1311;-66
2020/12/23 08:05:49;;;;;;;;;;;;;;;17.63;69.75;101658.09;4972178;28;850;-67
2020/12/23 08:08:26;;;;;;;;;;;;;;;17.63;69.76;101667.81;4989607;28;1316;-66
2020/12/23 08:10:52;;;;;;;;;;;;;;;17.61;69.67;101664.34;4989351;28;803;-69
2020/12/23 08:13:24;;;;;;;;;;;;;;;17.59;69.70;101672.34;4971756;28;1895;-71
2020/12/23 08:16:01;;;;;;;;;;;;;;;17.61;69.67;101667.84;4970675;28;1331;-67
2020/12/23 08:18:27;;;;;;;;;;;;;;;17.60;69.70;101666.13;4989308;28;1351;-67
2020/12/23 08:20:53;;;;;;;;;;;;;;;17.61;69.61;101667.00;4971464;28;1265;-68
2020/12/23 08:23:21;;;;;;;;;;;;;;;17.61;69.70;101674.91;4971502;28;1221;-67
2020/12/23 08:25:48;;;;;;;;;;;;;;;17.70;69.44;101664.88;4971247;28;1377;-66
2020/12/23 08:28:16;;;;;;;;;;;;;;;17.71;69.38;101681.56;4989254;28;1243;-68
2020/12/23 08:30:42;;;;;;;;;;;;;;;17.74;69.18;101671.75;4989032;28;783;-68
2020/12/23 08:33:12;;;;;;;;;;;;;;;17.81;69.38;101675.84;4989465;28;1906;-66
2020/12/23 08:35:43;;;;;;;;;;;;;;;17.73;69.62;101683.19;4991297;28;1680;-67
2020/12/23 08:38:18;;;;;;;;;;;;;;;17.67;69.82;101674.66;5008835;28;1300;-67
2020/12/23 08:40:48;;;;;;;;;;;;;;;17.60;70.21;101687.22;5009055;28;858;-65
2020/12/23 08:43:23;;;;;;;;;;;;;;;17.60;70.07;101686.38;5008365;28;1307;-64
2020/12/23 08:45:50;;;;;;;;;;;;;;;17.53;70.48;101684.84;4990609;28;839;-67
2020/12/23 08:48:20;;;;;;;;;;;;;;;17.82;70.11;101690.75;4990990;28;1343;-68
2020/12/23 08:50:57;;;;;;;;;;;;;;;18.06;69.25;101688.94;4990996;28;881;-65
2020/12/23 08:53:33;;;;;;;;;;;;;;;18.12;69.48;101693.97;5008928;28;1898;-68
2020/12/23 08:56:00;;;;;;;;;;;;;;;18.10;69.85;101695.81;4991092;28;830;-65
2020/12/23 08:58:28;;;;;;;;;;;;;;;18.08;70.35;101697.66;5009047;28;1034;-66
2020/12/23 09:01:00;;;;;;;;;;;;;;;17.99;70.91;101701.50;5008572;28;736;-65
2020/12/23 09:03:27;;;;;;;;;;;;;;;17.97;71.21;101700.72;5007222;28;1827;-67
2020/12/23 09:05:57;;;;;;;;;;;;;;;17.96;71.63;101703.41;4989207;28;1768;-66
2020/12/23 09:08:27;;;;;;;;;;;;;;;17.96;71.70;101703.41;5006764;28;1339;-64
2020/12/23 09:10:54;;;;;;;;;;;;;;;18.06;71.32;101698.63;5006716;28;1914;-67
2020/12/23 09:13:29;;;;;;;;;;;;;;;17.92;71.86;101700.03;4988771;28;1978;-67
2020/12/23 09:15:55;;;;;;;;;;;;;;;17.95;71.55;101696.41;5007516;28;840;-65
2020/12/23 09:18:22;;;;;;;;;;;;;;;18.06;70.72;101703.91;5007116;28;1370;-66
2020/12/23 09:20:56;;;;;;;;;;;;;;;18.11;70.75;101713.38;5007095;28;1804;-68
2020/12/23 09:23:23;;;;;;;;;;;;;;;18.10;71.29;101708.13;4989407;28;1355;-68
2020/12/23 09:25:49;;;;;;;;;;;;;;;18.09;70.52;101712.56;5006663;28;811;-67
2020/12/23 09:28:15;;;;;;;;;;;;;;;18.04;70.65;101709.25;5009334;28;1339;-68
2020/12/23 09:30:42;;;;;;;;;;;;;;;18.01;67.61;101712.00;5010781;28;756;-69
2020/12/23 09:33:10;;;;;;;;;;;;;;;18.05;66.15;101718.03;5010858;28;1983;-65
2020/12/23 09:35:37;;;;;;;;;;;;;;;18.02;66.84;101721.63;5010787;28;1015;-68
2020/12/23 09:38:12;;;;;;;;;;;;;;;18.12;69.52;101711.59;5010197;28;1875;-67
2020/12/23 09:40:43;;;;;;;;;;;;;;;18.05;66.44;101704.84;4992652;28;786;-68
2020/12/23 09:43:10;;;;;;;;;;;;;;;18.07;66.29;101708.25;4992053;28;1308;-71
2020/12/23 09:45:40;;;;;;;;;;;;;;;18.06;65.84;101710.03;4991689;28;1042;-67
2020/12/23 09:48:10;;;;;;;;;;;;;;;18.27;68.86;101718.91;4992792;28;1293;-69
2020/12/23 09:50:37;;;;;;;;;;;;;;;18.20;70.42;101706.88;4992338;28;1229;-67
2020/12/23 09:53:06;;;;;;;;;;;;;;;18.14;70.79;101707.13;5009808;28;1987;-69
2020/12/23 09:55:44;;;;;;;;;;;;;;;18.12;71.17;101714.25;4990169;28;1594;-68
2020/12/23 09:58:10;;;;;;;;;;;;;;;18.18;70.92;101714.81;5010160;28;1196;-68
2020/12/23 10:00:37;;;;;;;;;;;;;;;18.22;70.61;101720.84;4992164;28;1465;-69
2020/12/23 10:03:08;;;;;;;;;;;;;;;18.30;70.05;101724.06;5010153;28;1279;-73
2020/12/23 10:05:36;;;;;;;;;;;;;;;18.28;69.93;101725.88;4992122;28;1002;-72
2020/12/23 10:08:08;;;;;;;;;;;;;;;18.30;70.19;101721.41;5009688;28;1225;-73
2020/12/23 10:10:35;;;;;;;;;;;;;;;18.19;70.37;101715.69;4995474;28;1859;-80
2020/12/23 10:13:03;;;;;;;;;;;;;;;18.33;69.98;101721.31;4994488;28;1977;-73
2020/12/23 10:15:29;;;;;;;;;;;;;;;18.21;70.19;101717.34;5029018;28;1069;-72
2020/12/23 10:17:55;;;;;;;;;;;;;;;18.11;70.38;101715.16;5029003;28;1287;-72
2020/12/23 10:20:21;;;;;;;;;;;;;;;18.22;70.39;101715.56;5028788;28;1049;-70
2020/12/23 10:22:48;;;;;;;;;;;;;;;18.29;69.97;101706.50;4995580;28;1883;-69
2020/12/23 10:25:14;;;;;;;;;;;;;;;18.22;70.09;101705.03;5010757;28;1629;-72
2020/12/23 10:27:41;;;;;;;;;;;;;;;18.24;70.21;101698.75;4971674;28;1253;-67
2020/12/23 10:30:08;;;;;;;;;;;;;;;18.24;70.23;101697.94;4990535;28;1006;-71
2020/12/23 10:32:35;;;;;;;;;;;;;;;18.25;70.09;101689.06;5010986;28;1906;-71
2020/12/23 10:35:02;;;;;;;;;;;;;;;18.25;70.06;101675.88;5010731;28;1216;-70
2020/12/23 10:37:31;;;;;;;;;;;;;;;18.29;70.25;101680.13;5016982;28;1674;-71
2020/12/23 10:39:57;;;;;;;;;;;;;;;18.31;69.79;101673.00;4972049;28;1809;-70
2020/12/23 10:42:27;;;;;;;;;;;;;;;18.46;69.96;101673.25;5009686;28;1303;-74
2020/12/23 10:44:53;;;;;;;;;;;;;;;18.46;69.93;101675.88;5009653;28;1268;-77
2020/12/23 10:47:29;;;;;;;;;;;;;;;18.37;69.74;101675.38;5010355;28;1744;-76
2020/12/23 10:49:55;;;;;;;;;;;;;;;18.28;69.77;101673.13;4974560;28;1304;-77
2020/12/23 10:52:24;;;;;;;;;;;;;;;18.15;70.49;101674.56;4990645;28;1910;-72
2020/12/23 10:54:50;;;;;;;;;;;;;;;18.29;70.28;101669.56;5008094;28;1090;-76
2020/12/23 10:57:17;;;;;;;;;;;;;;;18.30;70.23;101658.13;4989286;28;1972;-72
2020/12/23 10:59:43;;;;;;;;;;;;;;;18.48;69.63;101666.09;5008674;28;1304;-74
2020/12/23 11:02:09;;;;;;;;;;;;;;;18.27;69.63;101667.00;5008353;28;1307;-73
2020/12/23 11:04:35;;;;;;;;;;;;;;;18.23;69.72;101660.13;4990270;28;1143;-74
2020/12/23 11:07:33;;;;;;;;;;;;;;;18.25;70.17;101650.38;5006314;28;1280;-73
2020/12/23 11:10:14;;;;;;;;;;;;;;;18.17;69.98;101648.97;4988850;28;1064;-75
2020/12/23 11:12:46;;;;;;;;;;;;;;;18.10;70.26;101637.81;4988870;28;1938;-76
2020/12/23 11:15:12;;;;;;;;;;;;;;;18.09;70.33;101640.53;4990877;28;964;-75
2020/12/23 11:17:39;;;;;;;;;;;;;;;18.07;70.44;101632.66;4974148;28;1335;-79
2020/12/23 11:20:05;;;;;;;;;;;;;;;18.07;70.40;101637.06;4974000;28;1561;-74
2020/12/23 11:22:32;;;;;;;;;;;;;;;18.07;70.57;101631.81;5008014;28;1327;-79
2020/12/23 11:25:03;;;;;;;;;;;;;;;18.16;70.33;101621.75;4974621;28;1039;-76
2020/12/23 11:27:33;;;;;;;;;;;;;;;18.09;70.92;101615.00;4991432;28;1331;-77
2020/12/23 11:29:59;;;;;;;;;;;;;;;18.24;70.13;101610.91;5008195;28;1238;-74
2020/12/23 11:32:25;;;;;;;;;;;;;;;18.13;70.31;101605.19;4990410;28;1360;-73
2020/12/23 11:34:51;;;;;;;;;;;;;;;18.11;70.11;101605.25;4989949;28;1945;-75
2020/12/23 11:37:18;;;;;;;;;;;;;;;18.06;70.47;101599.28;4974358;28;1323;-78
2020/12/23 11:39:44;;;;;;;;;;;;;;;18.05;70.47;101597.59;4973237;28;1517;-73
2020/12/23 11:42:11;;;;;;;;;;;;;;;18.06;70.37;101599.28;4989321;28;1399;-76
2020/12/23 11:44:40;;;;;;;;;;;;;;;18.07;70.40;101594.88;4974432;28;1349;-79
2020/12/23 11:47:07;;;;;;;;;;;;;;;18.09;70.33;101588.63;4990474;28;1366;-77
2020/12/23 11:49:34;;;;;;;;;;;;;;;18.07;70.34;101585.19;4973610;28;1094;-75
2020/12/23 11:52:00;;;;;;;;;;;;;;;18.03;70.34;101573.91;4990391;28;1359;-72
2020/12/23 11:54:30;;;;;;;;;;;;;;;18.04;70.42;101566.88;4990060;28;1922;-75
2020/12/23 11:56:56;;;;;;;;;;;;;;;18.02;70.23;101566.91;5007919;28;1292;-71
2020/12/23 11:59:23;;;;;;;;;;;;;;;18.03;70.03;101566.00;4990117;28;769;-73
2020/12/23 12:01:49;;;;;;;;;;;;;;;18.05;69.95;101562.47;5007796;28;1599;-71
2020/12/23 12:04:23;;;;;;;;;;;;;;;18.03;70.09;101557.25;4990481;28;1286;-73
2020/12/23 12:06:56;;;;;;;;;;;;;;;18.02;70.32;101543.19;5007452;28;1233;-74
2020/12/23 12:09:22;;;;;;;;;;;;;;;18.01;70.15;101548.56;4989982;28;1063;-76
2020/12/23 12:11:52;;;;;;;;;;;;;;;18.02;70.27;101545.00;4989237;28;1225;-73
2020/12/23 12:14:19;;;;;;;;;;;;;;;18.02;70.26;101537.91;4988725;28;1906;-71
2020/12/23 12:16:46;;;;;;;;;;;;;;;18.02;70.45;101539.72;4989569;28;1264;-74
2020/12/23 12:19:12;;;;;;;;;;;;;;;18.19;69.70;101533.72;4989606;28;1368;-69
2020/12/23 12:21:39;;;;;;;;;;;;;;;18.39;69.24;101526.69;4989526;28;1256;-73
2020/12/23 12:24:05;;;;;;;;;;;;;;;18.31;69.37;101520.03;5007804;28;1021;-70
2020/12/23 12:26:35;;;;;;;;;;;;;;;18.22;69.93;101531.84;5007531;28;1257;-73
2020/12/23 12:29:02;;;;;;;;;;;;;;;18.27;69.29;101506.09;5007260;28;1513;-71
2020/12/23 12:31:31;;;;;;;;;;;;;;;18.26;68.63;101496.50;4990303;28;1281;-71
2020/12/23 12:34:00;;;;;;;;;;;;;;;18.40;68.08;101490.59;5007075;28;1938;-69
2020/12/23 12:36:27;;;;;;;;;;;;;;;18.37;67.48;101494.25;5006975;28;1229;-72
2020/12/23 12:38:54;;;;;;;;;;;;;;;18.29;67.23;101490.22;4989204;28;1160;-70
2020/12/23 12:41:23;;;;;;;;;;;;;;;18.03;68.33;101509.78;4973255;28;1257;-73
2020/12/23 12:43:50;;;;;;;;;;;;;;;18.03;68.40;101500.09;4989542;28;1162;-70
2020/12/23 12:46:16;;;;;;;;;;;;;;;18.17;67.69;101493.41;5007325;28;1323;-71
2020/12/23 12:48:43;;;;;;;;;;;;;;;18.03;67.52;101481.66;4989260;28;1465;-68
2020/12/23 12:51:09;;;;;;;;;;;;;;;18.23;67.14;101486.09;5007143;28;1347;-69
2020/12/23 12:53:36;;;;;;;;;;;;;;;18.31;66.98;101489.25;4973205;28;1981;-73
2020/12/23 12:56:02;;;;;;;;;;;;;;;18.41;66.92;101498.47;5007168;28;1312;-72
2020/12/23 12:58:28;;;;;;;;;;;;;;;18.45;66.89;101492.13;5007202;28;916;-73